Time;durP1;ratioP1;P1;durP2;ratioP2;P2;SDS_P1;SDS_P2;PMS_P1;PMS_P2;Temp;Humidity;BMP_temperature;BMP_pressure;BME280_temperature;BME280_humidity;BME280_pressure;Samples;Min_cycle;Max_cycle;Signal;HPM_P1;HPM_P2
2021/01/08 00:01:09;;;;;;;6.70;3.90;;;1.30;79.60;;;1.44;69.06;97270.47;5082668;28;20048;-46
2021/01/08 00:03:39;;;;;;;8.43;4.43;;;1.10;80.10;;;1.44;68.51;97274.88;5082787;28;20329;-46
2021/01/08 00:06:06;;;;;;;9.30;4.87;;;1.10;79.70;;;1.19;68.95;97271.44;5080724;28;20048;-46
2021/01/08 00:08:33;;;;;;;9.83;4.80;;;0.90;80.60;;;1.12;69.41;97276.28;5065140;28;20071;-47
2021/01/08 00:11:01;;;;;;;8.67;5.27;;;0.90;81.30;;;1.19;68.91;97268.81;5082615;28;20362;-45
2021/01/08 00:13:28;;;;;;;9.33;5.43;;;0.90;81.40;;;1.29;69.49;97282.91;5082532;28;20050;-46
2021/01/08 00:15:56;;;;;;;10.00;5.20;;;1.00;81.30;;;1.30;69.15;97279.34;5082171;28;20050;-46
2021/01/08 00:18:23;;;;;;;9.80;5.47;;;1.00;81.10;;;1.23;69.28;97272.88;5082494;28;20359;-47
2021/01/08 00:20:51;;;;;;;11.90;5.17;;;1.00;80.60;;;1.30;68.67;97268.00;5082389;28;20047;-46
2021/01/08 00:23:18;;;;;;;11.57;6.80;;;1.00;80.60;;;1.32;68.96;97268.75;5064191;28;20244;-47
2021/01/08 00:25:51;;;;;;;10.50;5.83;;;1.00;80.50;;;1.18;69.36;97267.97;5081919;28;20241;-46
2021/01/08 00:28:19;;;;;;;8.80;5.50;;;1.00;80.30;;;1.14;69.65;97271.78;5082118;28;20082;-47
2021/01/08 00:30:46;;;;;;;9.13;4.73;;;0.90;80.70;;;1.11;69.25;97269.38;5081854;28;20055;-47
2021/01/08 00:33:14;;;;;;;10.87;5.77;;;0.80;80.70;;;1.22;69.77;97268.56;5082227;28;20236;-45
2021/01/08 00:35:41;;;;;;;9.37;5.63;;;0.90;80.90;;;1.08;69.63;97272.19;5081662;28;20055;-49
2021/01/08 00:38:10;;;;;;;9.87;6.23;;;0.80;80.70;;;1.19;69.89;97263.56;5082205;28;20045;-45
2021/01/08 00:40:37;;;;;;;12.00;6.40;;;0.90;81.10;;;0.98;69.34;97265.97;5082125;28;20371;-47
2021/01/08 00:43:05;;;;;;;14.07;6.07;;;0.80;81.10;;;1.07;70.02;97267.09;5082144;28;20045;-48
2021/01/08 00:45:33;;;;;;;13.47;7.10;;;0.80;81.40;;;1.09;69.32;97267.81;5082079;28;20342;-46
2021/01/08 00:48:01;;;;;;;8.17;5.13;;;0.80;81.10;;;1.12;69.26;97267.56;5082048;28;20044;-45
2021/01/08 00:50:29;;;;;;;10.17;5.47;;;0.90;80.10;;;0.95;68.35;97259.16;5080202;28;20052;-45
2021/01/08 00:52:56;;;;;;;8.33;4.93;;;0.70;78.80;;;1.12;68.47;97260.53;5081338;28;20245;-46
2021/01/08 00:55:24;;;;;;;10.07;4.60;;;0.90;79.10;;;1.21;68.83;97256.41;5080659;28;20060;-48
2021/01/08 00:58:00;;;;;;;9.83;4.33;;;0.90;78.60;;;1.25;68.44;97262.28;5080727;28;20058;-46
2021/01/08 01:00:28;;;;;;;9.20;5.10;;;0.90;77.40;;;1.25;67.99;97262.28;5067563;28;20351;-49
2021/01/08 01:02:55;;;;;;;7.47;4.20;;;0.90;78.10;;;1.23;67.58;97259.75;5081414;28;20240;-45
2021/01/08 01:05:22;;;;;;;10.80;5.67;;;0.90;77.90;;;1.29;68.02;97263.72;5081361;28;20048;-47
2021/01/08 01:07:50;;;;;;;10.17;5.23;;;0.90;77.80;;;1.17;67.48;97258.44;5081847;28;20121;-46
2021/01/08 01:10:17;;;;;;;9.23;5.13;;;0.80;77.30;;;1.14;67.44;97255.19;5081797;28;20303;-47
2021/01/08 01:12:44;;;;;;;7.40;4.43;;;0.70;77.40;;;1.08;67.98;97259.09;5081687;28;20348;-46
2021/01/08 01:15:17;;;;;;;9.00;5.37;;;0.70;78.10;;;0.98;67.23;97260.72;5081261;28;20222;-49
2021/01/08 01:17:44;;;;;;;9.10;4.87;;;0.60;78.30;;;0.85;67.71;97263.38;5079532;28;20056;-48
2021/01/08 01:20:13;;;;;;;8.67;4.97;;;0.50;78.10;;;0.90;68.17;97258.66;5077990;28;20240;-47
2021/01/08 01:22:40;;;;;;;7.03;4.27;;;0.50;78.60;;;0.95;67.98;97264.41;5081138;28;20337;-46
2021/01/08 01:25:09;;;;;;;11.83;5.13;;;0.60;78.90;;;0.87;67.64;97268.50;5070411;28;20048;-47
2021/01/08 01:27:38;;;;;;;9.07;4.63;;;0.60;77.70;;;0.98;68.13;97273.81;5081100;28;20359;-50
2021/01/08 01:30:08;;;;;;;9.90;4.90;;;0.60;78.20;;;0.96;67.65;97260.81;5071217;28;20052;-47
2021/01/08 01:32:36;;;;;;;7.73;4.43;;;0.60;78.30;;;0.96;67.99;97270.47;5080700;28;20055;-45
2021/01/08 01:35:04;;;;;;;8.37;4.80;;;0.60;78.30;;;1.04;68.41;97268.13;5079474;28;20062;-45
2021/01/08 01:37:31;;;;;;;9.17;4.57;;;0.70;78.40;;;1.11;67.59;97268.53;5081558;28;20341;-48
2021/01/08 01:39:59;;;;;;;9.20;5.07;;;0.80;77.70;;;1.14;67.99;97271.78;5081772;28;20067;-47
2021/01/08 01:42:26;;;;;;;10.17;5.67;;;0.80;78.00;;;1.05;67.48;97271.59;5083236;28;20210;-45
2021/01/08 01:44:54;;;;;;;11.50;4.87;;;0.70;77.30;;;0.98;68.29;97276.44;5084855;28;20257;-48
2021/01/08 01:47:21;;;;;;;10.20;5.47;;;0.70;77.90;;;1.11;67.91;97279.03;5083102;28;20060;-45
2021/01/08 01:49:49;;;;;;;8.77;5.47;;;0.80;78.10;;;1.14;68.38;97273.53;5085295;28;20033;-48
2021/01/08 01:52:16;;;;;;;7.97;4.80;;;0.80;78.30;;;1.14;67.60;97277.03;5083679;28;20064;-45
2021/01/08 01:54:44;;;;;;;6.93;4.17;;;0.80;78.20;;;1.20;68.11;97274.88;5083534;28;20056;-48
2021/01/08 01:57:11;;;;;;;9.13;5.00;;;0.80;77.50;;;1.24;67.77;97277.19;5085175;28;20052;-46
2021/01/08 01:59:38;;;;;;;9.07;4.93;;;0.90;78.10;;;1.28;67.50;97269.91;5085169;28;20052;-47
2021/01/08 02:02:18;;;;;;;8.90;4.80;;;0.90;77.60;;;1.34;68.01;97283.44;5084866;28;20055;-46
2021/01/08 02:04:47;;;;;;;9.03;5.80;;;1.00;77.50;;;1.33;67.38;97281.75;5082913;28;20082;-45
2021/01/08 02:07:15;;;;;;;8.77;5.17;;;1.00;77.10;;;1.39;67.62;97277.84;5083745;28;20235;-46
2021/01/08 02:09:44;;;;;;;10.40;5.07;;;1.00;77.10;;;1.44;67.90;97286.22;5083673;28;20049;-46
2021/01/08 02:12:13;;;;;;;10.50;4.57;;;1.10;77.20;;;1.44;68.04;97278.34;5083702;28;20352;-47
2021/01/08 02:14:44;;;;;;;7.47;4.67;;;1.10;77.00;;;1.45;67.14;97280.00;5083159;28;20053;-46
2021/01/08 02:17:15;;;;;;;8.43;4.47;;;1.10;77.00;;;1.46;67.73;97273.81;5083423;28;20051;-47
2021/01/08 02:19:51;;;;;;;6.47;3.80;;;1.10;76.80;;;1.47;67.57;97279.88;5083334;28;20064;-46
2021/01/08 02:22:29;;;;;;;8.33;4.37;;;1.10;76.70;;;1.44;67.57;97280.13;5084545;28;20048;-47
2021/01/08 02:25:22;;;;;;;7.93;4.50;;;1.00;76.80;;;1.46;67.82;97286.09;5083166;28;20041;-48
2021/01/08 02:28:05;;;;;;;8.80;4.27;;;1.00;76.80;;;1.46;66.97;97279.06;5084625;28;20047;-46
2021/01/08 02:30:34;;;;;;;6.83;3.83;;;1.10;76.30;;;1.47;67.35;97277.25;5084362;28;20055;-46
2021/01/08 02:33:03;;;;;;;7.77;4.37;;;1.10;77.00;;;1.47;67.21;97275.47;5084331;28;20048;-45
2021/01/08 02:35:32;;;;;;;6.67;4.03;;;1.10;76.70;;;1.51;67.46;97278.72;5082851;28;20348;-46
2021/01/08 02:38:01;;;;;;;7.87;4.20;;;1.10;76.80;;;1.51;67.10;97282.19;5084317;28;20221;-49
2021/01/08 02:40:29;;;;;;;10.03;4.43;;;1.10;76.40;;;1.53;67.08;97276.81;5082903;28;20244;-46
2021/01/08 02:43:02;;;;;;;9.03;4.43;;;1.10;76.50;;;1.52;67.23;97275.97;5082954;28;20047;-48
2021/01/08 02:45:31;;;;;;;6.28;3.58;;;1.10;76.30;;;1.51;67.24;97271.69;5083619;28;20044;-48
2021/01/08 02:47:59;;;;;;;7.33;4.03;;;1.10;76.40;;;1.53;67.46;97276.81;5083721;28;20049;-47
2021/01/08 02:50:26;;;;;;;8.13;4.67;;;1.10;76.70;;;1.52;67.45;97275.97;5083979;28;20041;-48
2021/01/08 02:53:00;;;;;;;8.03;4.30;;;1.10;76.60;;;1.47;66.83;97277.25;5083526;28;20272;-46
2021/01/08 02:55:31;;;;;;;5.43;3.88;;;1.10;76.10;;;1.46;67.05;97281.69;5082282;28;20052;-47
2021/01/08 02:58:04;;;;;;;7.67;3.83;;;1.00;76.40;;;1.45;66.88;97272.13;5082281;28;20063;-50
2021/01/08 03:00:33;;;;;;;9.03;4.00;;;1.00;76.20;;;1.42;67.08;97269.75;5082775;28;20052;-47
2021/01/08 03:03:01;;;;;;;8.63;4.47;;;1.00;76.80;;;1.42;66.52;97272.38;5082779;28;20048;-45
2021/01/08 03:05:31;;;;;;;6.47;3.93;;;0.90;76.20;;;1.41;66.51;97270.69;5081860;28;20214;-50
2021/01/08 03:07:59;;;;;;;8.60;3.83;;;1.00;76.70;;;1.42;66.92;97263.69;5083922;28;20047;-47
2021/01/08 03:10:27;;;;;;;7.00;3.30;;;1.00;76.60;;;1.41;66.79;97265.44;5084136;28;20040;-48
2021/01/08 03:13:00;;;;;;;6.90;3.47;;;1.00;76.30;;;1.42;67.08;97268.91;5083763;28;20241;-47
2021/01/08 03:15:28;;;;;;;5.72;3.53;;;1.00;76.10;;;1.41;67.41;97267.22;5082308;28;20059;-46
2021/01/08 03:17:55;;;;;;;7.87;4.07;;;1.00;76.40;;;1.41;67.53;97260.19;5083698;28;20062;-45
2021/01/08 03:20:23;;;;;;;7.03;3.73;;;1.00;76.60;;;1.41;67.23;97260.19;5083759;28;20048;-46
2021/01/08 03:22:50;;;;;;;8.63;3.47;;;1.00;76.80;;;1.41;66.78;97265.44;5083527;28;20055;-48
2021/01/08 03:25:18;;;;;;;8.57;4.00;;;1.00;76.90;;;1.43;66.99;97262.72;5083190;28;20045;-48
2021/01/08 03:27:45;;;;;;;7.60;4.33;;;1.00;76.80;;;1.45;67.42;97263.44;5083485;28;20046;-48
2021/01/08 03:30:14;;;;;;;7.57;4.20;;;1.10;77.00;;;1.48;66.80;97261.41;5083365;28;20048;-44
2021/01/08 03:32:41;;;;;;;7.20;3.63;;;1.10;76.70;;;1.49;66.89;97263.09;5083246;28;20059;-48
2021/01/08 03:35:10;;;;;;;6.80;3.77;;;1.10;76.70;;;1.50;66.90;97262.13;5082828;28;20062;-47
2021/01/08 03:37:37;;;;;;;6.67;3.70;;;1.00;76.40;;;1.47;66.56;97264.16;5083224;28;20048;-45
2021/01/08 03:40:07;;;;;;;7.50;3.63;;;1.00;76.30;;;1.46;67.01;97263.31;5083331;28;20052;-45
2021/01/08 03:42:35;;;;;;;5.27;3.17;;;1.00;76.40;;;1.45;66.79;97260.81;5082690;28;20045;-45
2021/01/08 03:45:04;;;;;;;6.33;3.40;;;1.00;76.70;;;1.41;67.25;97254.13;5081510;28;20237;-45
2021/01/08 03:47:32;;;;;;;5.93;3.53;;;1.00;76.60;;;1.41;66.72;97252.31;5083107;28;20248;-46
2021/01/08 03:49:59;;;;;;;5.87;3.37;;;1.00;76.70;;;1.41;66.81;97251.50;5082733;28;20044;-46
2021/01/08 03:52:26;;;;;;;7.10;4.20;;;0.90;76.80;;;1.40;66.42;97258.53;5082870;28;20078;-47
2021/01/08 03:54:54;;;;;;;9.67;3.43;;;0.90;77.00;;;1.40;66.49;97258.53;5082564;28;20063;-45
2021/01/08 03:57:21;;;;;;;7.23;4.17;;;0.90;77.20;;;1.39;67.44;97251.59;5082870;28;20053;-46
2021/01/08 03:59:48;;;;;;;8.20;3.70;;;0.90;77.20;;;1.38;67.23;97244.69;5082892;28;20054;-45
2021/01/08 04:02:16;;;;;;;6.03;3.27;;;1.00;77.10;;;1.40;66.92;97252.44;5082659;28;20051;-47
2021/01/08 04:04:43;;;;;;;6.57;3.40;;;1.00;77.00;;;1.41;67.26;97251.50;5081777;28;20052;-47
2021/01/08 04:07:11;;;;;;;8.20;3.93;;;1.00;77.10;;;1.41;66.64;97247.06;5082577;28;20052;-49
2021/01/08 04:09:38;;;;;;;6.17;3.43;;;1.00;77.10;;;1.41;66.58;97247.06;5082685;28;20048;-48
2021/01/08 04:12:06;;;;;;;5.10;3.30;;;1.00;77.00;;;1.41;66.94;97243.63;5082428;28;20064;-47
2021/01/08 04:14:33;;;;;;;6.23;3.73;;;1.00;77.00;;;1.41;67.17;97243.63;5082498;28;20160;-46
2021/01/08 04:17:01;;;;;;;7.17;3.80;;;1.00;77.00;;;1.37;66.92;97240.38;5082076;28;20059;-45
2021/01/08 04:19:28;;;;;;;7.67;3.67;;;0.90;77.10;;;1.37;67.01;97237.75;5082510;28;20056;-47
2021/01/08 04:21:55;;;;;;;7.07;4.43;;;0.90;77.30;;;1.35;66.92;97237.88;5082358;28;20096;-46
2021/01/08 04:24:23;;;;;;;8.57;3.87;;;0.90;77.30;;;1.33;66.64;97236.31;5082304;28;20102;-48
2021/01/08 04:26:50;;;;;;;4.87;3.23;;;0.90;77.40;;;1.33;66.76;97236.31;5081901;28;20039;-48
2021/01/08 04:29:18;;;;;;;6.67;4.27;;;0.90;77.50;;;1.34;66.93;97238.00;5082155;28;20056;-45
2021/01/08 04:31:45;;;;;;;7.83;3.93;;;0.90;77.30;;;1.35;66.60;97240.50;5081771;28;20229;-49
2021/01/08 04:34:13;;;;;;;8.43;4.20;;;0.90;77.60;;;1.35;66.97;97235.25;5082262;28;20239;-46
2021/01/08 04:36:40;;;;;;;9.37;5.80;;;0.90;77.40;;;1.41;67.04;97243.63;5082332;28;20055;-46
2021/01/08 04:39:08;;;;;;;5.93;3.83;;;1.00;78.30;;;1.42;67.21;97238.28;5082076;28;20054;-46
2021/01/08 04:41:36;;;;;;;6.37;3.40;;;1.00;77.60;;;1.42;67.20;97240.06;5081829;28;20244;-50
2021/01/08 04:44:05;;;;;;;6.77;4.27;;;1.10;77.70;;;1.45;66.86;97239.81;5080398;28;20522;-48
2021/01/08 04:46:35;;;;;;;6.30;3.93;;;1.10;77.50;;;1.45;67.45;97239.81;5080466;28;20048;-46
2021/01/08 04:49:07;;;;;;;9.63;4.23;;;1.10;77.50;;;1.47;67.57;97245.78;5080636;28;20048;-45
2021/01/08 04:51:38;;;;;;;5.97;3.97;;;1.10;78.00;;;1.50;67.64;97250.81;5081851;28;20048;-47
2021/01/08 04:54:06;;;;;;;8.20;4.30;;;1.10;78.10;;;1.51;67.14;97244.59;5081865;28;20087;-45
2021/01/08 04:56:43;;;;;;;6.63;3.57;;;1.10;78.00;;;1.46;67.88;97241.50;5081381;28;20044;-47
2021/01/08 04:59:11;;;;;;;6.90;3.70;;;1.10;78.60;;;1.34;67.18;97241.47;5080796;28;20055;-48
2021/01/08 05:01:39;;;;;;;6.17;3.60;;;0.90;78.80;;;1.38;67.24;97236.81;5080313;28;20078;-46
2021/01/08 05:04:07;;;;;;;5.70;3.47;;;1.00;79.30;;;1.40;68.02;97239.31;5081564;28;20229;-47
2021/01/08 05:06:35;;;;;;;8.13;4.37;;;1.00;79.30;;;1.43;67.41;97247.78;5081220;28;20046;-45
2021/01/08 05:09:03;;;;;;;7.53;4.33;;;1.00;79.10;;;1.45;67.44;97245.06;5080673;28;20045;-46
2021/01/08 05:11:31;;;;;;;7.63;4.10;;;1.00;79.20;;;1.47;67.96;97243.16;5081579;28;20041;-45
2021/01/08 05:14:04;;;;;;;6.10;4.17;;;1.10;79.40;;;1.49;67.63;97243.88;5081188;28;20052;-49
2021/01/08 05:16:32;;;;;;;8.23;3.80;;;1.10;79.30;;;1.50;68.31;97238.53;5082772;28;20048;-45
2021/01/08 05:19:03;;;;;;;8.90;3.77;;;1.10;79.30;;;1.49;67.69;97242.13;5084312;28;20059;-51
2021/01/08 05:21:32;;;;;;;6.67;4.03;;;1.10;79.30;;;1.52;68.07;97243.66;5085815;28;20245;-47
2021/01/08 05:24:03;;;;;;;9.53;4.27;;;1.10;79.50;;;1.53;67.64;97243.56;5085600;28;20070;-45
2021/01/08 05:26:31;;;;;;;7.23;4.60;;;1.10;79.50;;;1.54;68.16;97241.75;5085113;28;20049;-46
2021/01/08 05:29:02;;;;;;;7.33;4.00;;;1.20;79.50;;;1.55;68.41;97246.03;5085588;28;20059;-45
2021/01/08 05:31:33;;;;;;;6.60;3.53;;;1.20;79.50;;;1.58;68.13;97243.19;5109763;22;20040;-39
2021/01/08 05:34:02;;;;;;;6.40;4.13;;;1.20;79.50;;;1.58;67.88;97248.44;5105951;28;20048;-42
2021/01/08 05:36:30;;;;;;;5.77;3.47;;;1.20;79.50;;;1.59;68.04;97234.41;5105425;28;20050;-42
2021/01/08 05:39:00;;;;;;;6.13;3.57;;;1.20;79.50;;;1.61;68.43;97236.88;5105852;28;20070;-42
2021/01/08 05:41:32;;;;;;;9.23;4.10;;;1.30;79.50;;;1.62;67.82;97236.78;5105261;28;20062;-42
2021/01/08 05:44:01;;;;;;;5.57;3.67;;;1.30;79.50;;;1.60;68.12;97236.06;5105008;28;20046;-42
2021/01/08 05:46:34;;;;;;;5.97;3.40;;;1.20;79.30;;;1.61;68.24;97242.13;5105310;28;20046;-42
2021/01/08 05:49:05;;;;;;;5.72;3.33;;;1.20;79.50;;;1.62;68.26;97243.81;5087644;28;20052;-42
2021/01/08 05:51:38;;;;;;;8.30;3.20;;;1.20;79.20;;;1.60;68.07;97241.28;5087997;28;20036;-42
2021/01/08 05:54:06;;;;;;;5.85;3.20;;;1.20;79.30;;;1.62;67.74;97241.19;5087813;28;20048;-42
2021/01/08 05:56:36;;;;;;;5.57;3.13;;;1.20;79.50;;;1.62;68.16;97246.44;5104020;28;20058;-42
2021/01/08 05:59:06;;;;;;;6.90;3.73;;;1.20;79.50;;;1.62;67.79;97246.44;5104664;28;20058;-42
2021/01/08 06:01:37;;;;;;;5.77;3.57;;;1.20;79.40;;;1.64;68.30;97245.34;5102274;28;20060;-42
2021/01/08 06:04:07;;;;;;;7.43;4.70;;;1.30;79.40;;;1.67;67.84;97249.56;5104914;28;20054;-42
2021/01/08 06:06:44;;;;;;;6.50;3.57;;;1.30;79.10;;;1.69;67.81;97250.28;5103503;28;20051;-42
2021/01/08 06:09:16;;;;;;;6.17;3.00;;;1.30;79.20;;;1.70;67.71;97250.13;5105317;28;20050;-43
2021/01/08 06:11:45;;;;;;;7.43;3.07;;;1.30;79.20;;;1.69;68.20;97251.13;5105255;28;20323;-42
2021/01/08 06:14:15;;;;;;;5.47;3.10;;;1.30;79.20;;;1.69;67.76;97245.88;5086700;28;20260;-42
2021/01/08 06:16:47;;;;;;;6.37;3.03;;;1.30;79.30;;;1.69;67.77;97253.72;5086840;28;20260;-42
2021/01/08 06:19:16;;;;;;;5.87;3.57;;;1.40;79.10;;;1.70;68.01;97250.13;5087094;28;20052;-42
2021/01/08 06:21:46;;;;;;;6.77;3.13;;;1.30;79.00;;;1.71;68.39;97251.81;5086675;28;20078;-43
2021/01/08 06:24:28;;;;;;;6.33;3.23;;;1.30;79.10;;;1.73;68.05;97254.34;5103885;28;20052;-42
2021/01/08 06:26:55;;;;;;;6.20;3.37;;;1.30;78.80;;;1.73;68.18;97254.34;5103793;28;20050;-42
2021/01/08 06:29:32;;;;;;;6.03;3.37;;;1.30;79.20;;;1.70;68.10;97255.38;5104394;28;20048;-42
2021/01/08 06:32:16;;;;;;;8.30;3.30;;;1.30;79.10;;;1.71;68.40;97257.06;5104761;28;20054;-42
2021/01/08 06:34:47;;;;;;;5.63;2.83;;;1.30;79.30;;;1.71;68.22;97259.69;5087477;28;20051;-42
2021/01/08 06:37:18;;;;;;;4.70;2.70;;;1.30;79.00;;;1.73;67.60;97263.03;5103765;28;20078;-42
2021/01/08 06:39:46;;;;;;;6.17;2.93;;;1.30;79.10;;;1.72;67.85;97263.16;5104779;28;20052;-42
2021/01/08 06:42:47;;;;;;;5.03;2.50;;;1.30;78.90;;;1.69;68.01;97266.03;5086198;28;20063;-41
2021/01/08 06:45:17;;;;;;;4.13;2.50;;;1.30;78.20;;;1.65;67.58;97265.41;5104180;28;20052;-42
2021/01/08 06:47:47;;;;;;;6.90;3.40;;;1.30;78.80;;;1.67;68.08;97268.75;5103702;28;20233;-42
2021/01/08 06:50:20;;;;;;;8.40;3.00;;;1.30;79.10;;;1.69;67.69;97272.09;5103551;28;20054;-42
2021/01/08 06:52:48;;;;;;;5.70;2.40;;;1.30;79.00;;;1.71;67.68;97272.81;5104341;28;20370;-42
2021/01/08 06:55:19;;;;;;;5.53;2.70;;;1.30;78.80;;;1.72;67.66;97274.47;5102889;28;20058;-42
2021/01/08 06:57:54;;;;;;;3.60;2.73;;;1.30;78.70;;;1.73;67.57;97268.28;5086066;28;20056;-42
2021/01/08 07:00:28;;;;;;;4.47;2.30;;;1.30;78.10;;;1.74;67.80;97269.13;5104325;28;20044;-42
2021/01/08 07:03:05;;;;;;;4.10;2.30;;;1.30;78.60;;;1.74;67.71;97267.31;5084600;28;20241;-42
2021/01/08 07:05:33;;;;;;;4.27;1.90;;;1.40;78.10;;;1.73;68.16;97276.16;5103973;28;20048;-42
2021/01/08 07:08:02;;;;;;;3.10;2.10;;;1.40;77.90;;;1.74;68.04;97269.13;5086471;28;20227;-42
2021/01/08 07:10:31;;;;;;;4.87;2.20;;;1.40;78.10;;;1.75;67.85;97265.56;5086452;28;20054;-42
2021/01/08 07:12:59;;;;;;;3.47;2.00;;;1.40;77.80;;;1.74;67.24;97277.00;5086314;28;20050;-43
2021/01/08 07:15:27;;;;;;;4.40;2.50;;;1.40;77.60;;;1.75;67.47;97281.31;5103560;28;20052;-42
2021/01/08 07:17:55;;;;;;;3.40;2.10;;;1.40;78.00;;;1.65;67.64;97283.78;5069324;28;20213;-42
2021/01/08 07:20:23;;;;;;;3.70;2.17;;;1.30;77.60;;;1.61;67.63;97284.09;5102694;28;20050;-42
2021/01/08 07:22:55;;;;;;;3.07;1.73;;;1.30;77.50;;;1.51;67.69;97270.84;5102574;28;20048;-41
2021/01/08 07:25:25;;;;;;;4.10;2.13;;;1.20;78.20;;;1.58;68.14;97288.63;5103309;28;20044;-46
2021/01/08 07:27:53;;;;;;;3.67;2.23;;;1.30;78.20;;;1.57;68.31;97284.34;5103442;28;20489;-42
2021/01/08 07:30:21;;;;;;;5.53;2.30;;;1.30;78.80;;;1.61;67.68;97294.59;5103646;28;20227;-42
2021/01/08 07:32:51;;;;;;;4.07;2.37;;;1.30;78.40;;;1.63;68.08;97295.31;5103717;28;20239;-42
2021/01/08 07:35:27;;;;;;;4.63;2.20;;;1.30;78.80;;;1.54;67.87;97297.69;5102713;28;20054;-42
2021/01/08 07:38:14;;;;;;;3.73;2.33;;;1.20;78.90;;;1.55;68.32;97295.91;5102471;28;20054;-42
2021/01/08 07:40:50;;;;;;;3.50;2.23;;;1.20;79.00;;;1.56;68.25;97300.22;5102455;28;20044;-42
2021/01/08 07:43:18;;;;;;;4.80;2.13;;;1.20;79.20;;;1.57;68.23;97297.47;5103080;28;20035;-42
2021/01/08 07:45:56;;;;;;;3.83;2.30;;;1.30;79.00;;;1.63;68.22;97309.31;5103099;28;20043;-42
2021/01/08 07:48:35;;;;;;;3.20;2.23;;;1.30;79.10;;;1.64;68.11;97310.13;5101676;28;20044;-43
2021/01/08 07:51:13;;;;;;;5.20;2.80;;;1.40;78.80;;;1.69;68.62;97310.66;5103281;28;20117;-42
2021/01/08 07:53:47;;;;;;;4.47;2.40;;;1.40;78.80;;;1.72;68.23;97318.28;5103140;28;20069;-42
2021/01/08 07:56:19;;;;;;;4.87;2.30;;;1.40;78.50;;;1.67;67.91;97320.41;5102407;28;20363;-41
2021/01/08 07:59:09;;;;;;;6.07;2.93;;;1.40;78.60;;;1.70;68.53;97321.00;5102932;28;20247;-42
2021/01/08 08:01:37;;;;;;;4.80;2.63;;;1.40;78.80;;;1.69;67.50;97321.97;5101526;28;20251;-42
2021/01/08 08:04:08;;;;;;;5.00;2.50;;;1.40;79.00;;;1.69;68.11;97331.63;5102927;28;20472;-42
2021/01/08 08:06:39;;;;;;;6.63;3.20;;;1.40;78.60;;;1.53;68.26;97324.91;5102669;28;20040;-42
2021/01/08 08:09:15;;;;;;;4.40;2.63;;;1.20;79.30;;;1.44;68.50;97329.97;5102357;28;20070;-41
2021/01/08 08:11:43;;;;;;;5.50;2.90;;;1.10;79.40;;;1.31;68.08;97330.84;5101920;28;20058;-42
2021/01/08 08:14:16;;;;;;;6.03;3.20;;;1.00;80.30;;;1.29;68.78;97339.78;5102860;28;20052;-42
2021/01/08 08:16:44;;;;;;;5.68;3.05;;;0.90;80.80;;;1.37;68.57;97335.66;5102518;28;20048;-41
2021/01/08 08:19:14;;;;;;;9.43;5.23;;;1.00;80.80;;;1.42;69.17;97332.72;5084288;28;20058;-41
2021/01/08 08:21:49;;;;;;;5.53;3.70;;;1.10;80.40;;;1.43;68.40;97336.16;5102118;28;20255;-42
2021/01/08 08:24:18;;;;;;;5.03;3.27;;;1.10;80.00;;;1.49;68.48;97341.81;5101874;28;20043;-42
2021/01/08 08:26:50;;;;;;;6.30;3.07;;;1.20;79.90;;;1.49;68.62;97340.94;5101219;28;20047;-42
2021/01/08 08:29:19;;;;;;;6.33;3.50;;;1.20;79.60;;;1.32;69.16;97339.56;5102402;28;20048;-41
2021/01/08 08:31:51;;;;;;;8.13;4.43;;;1.10;79.80;;;1.42;68.43;97348.44;5102063;28;20048;-41
2021/01/08 08:34:31;;;;;;;4.82;3.15;;;1.10;80.20;;;1.42;68.37;97348.44;5102567;28;20040;-42
2021/01/08 08:37:10;;;;;;;5.23;3.10;;;1.20;79.90;;;1.33;69.00;97355.19;5102109;28;20050;-42
2021/01/08 08:39:38;;;;;;;4.53;3.07;;;1.10;79.90;;;1.29;69.46;97355.53;5100991;28;20082;-42
2021/01/08 08:42:07;;;;;;;6.03;3.40;;;1.00;80.50;;;1.27;68.90;97362.66;5095534;28;20059;-41
2021/01/08 08:44:42;;;;;;;7.37;3.63;;;1.10;79.80;;;1.26;68.98;97361.84;5083713;28;20043;-42
2021/01/08 08:47:11;;;;;;;5.40;2.90;;;1.00;80.20;;;1.22;69.09;97367.38;5085776;28;20233;-42
2021/01/08 08:49:39;;;;;;;5.87;3.13;;;1.00;80.50;;;1.25;68.74;97365.38;5101170;28;20039;-42
2021/01/08 08:52:07;;;;;;;6.80;3.37;;;1.00;80.20;;;1.27;69.28;97366.13;5099019;28;20048;-42
2021/01/08 08:54:38;;;;;;;6.63;3.67;;;1.10;80.40;;;1.38;68.71;97365.34;5101477;28;20120;-42
2021/01/08 08:57:06;;;;;;;6.10;3.70;;;1.20;80.10;;;1.42;69.58;97363.34;5100688;28;20050;-42
2021/01/08 08:59:41;;;;;;;5.97;4.00;;;1.20;79.70;;;1.41;69.40;97373.00;5101763;28;20056;-41
2021/01/08 09:02:27;;;;;;;6.60;3.70;;;1.20;79.60;;;1.44;69.33;97369.34;5100221;28;20243;-41
2021/01/08 09:04:57;;;;;;;5.00;3.30;;;1.30;80.00;;;1.51;68.89;97367.91;5101020;28;20040;-42
2021/01/08 09:07:30;;;;;;;6.60;4.00;;;1.30;79.20;;;1.59;68.34;97362.97;5101200;28;20048;-41
2021/01/08 09:10:22;;;;;;;5.68;2.95;;;1.40;79.40;;;1.67;68.21;97373.75;5083355;28;20048;-41
2021/01/08 09:13:07;;;;;;;6.77;2.93;;;1.50;78.70;;;1.54;68.44;97365.91;5079651;28;20221;-42
2021/01/08 09:15:42;;;;;;;6.28;4.05;;;1.40;78.60;;;1.45;68.47;97369.19;5080953;28;20049;-42
2021/01/08 09:18:39;;;;;;;6.50;3.73;;;1.20;78.80;;;1.42;68.91;97358.09;5063134;28;20045;-42
2021/01/08 09:21:31;;;;;;;5.23;3.60;;;1.20;79.80;;;1.40;68.74;97366.09;5089247;28;20048;-44
2021/01/08 09:24:00;;;;;;;6.17;3.90;;;1.30;79.10;;;1.29;68.74;97363.41;5083795;28;20050;-41
2021/01/08 09:26:30;;;;;;;5.80;3.53;;;1.10;80.20;;;1.21;69.73;97374.44;5082535;28;20397;-42
2021/01/08 09:28:58;;;;;;;6.53;3.50;;;1.10;80.60;;;1.09;70.14;97370.91;5083777;28;20352;-42
2021/01/08 09:31:47;;;;;;;6.37;4.07;;;1.00;80.90;;;1.10;70.53;97383.03;5101013;28;20056;-42
2021/01/08 09:34:19;;;;;;;7.17;3.83;;;0.90;81.50;;;1.09;70.59;97381.38;5100133;28;20052;-41
2021/01/08 09:36:48;;;;;;;7.13;4.07;;;0.90;81.90;;;1.22;69.54;97381.34;5082048;28;20044;-42
2021/01/08 09:39:16;;;;;;;8.03;4.30;;;1.10;81.80;;;1.34;69.27;97388.34;5100970;28;20051;-42
2021/01/08 09:41:44;;;;;;;7.17;3.73;;;1.20;80.80;;;1.25;70.23;97388.16;5100690;28;20247;-42
2021/01/08 09:44:14;;;;;;;8.63;3.87;;;1.20;80.50;;;1.23;69.41;97388.28;5100344;28;20062;-42
2021/01/08 09:47:09;;;;;;;9.10;5.20;;;1.10;80.90;;;1.22;69.98;97381.34;5081949;28;20054;-42
2021/01/08 09:49:50;;;;;;;8.63;4.80;;;1.00;81.30;;;1.25;69.55;97382.91;5101277;28;20336;-41
2021/01/08 09:52:27;;;;;;;8.57;4.87;;;1.00;81.10;;;1.12;70.46;97383.78;5099118;28;20059;-42
2021/01/08 09:55:30;;;;;;;6.60;4.23;;;1.00;81.80;;;1.22;70.34;97389.19;5093992;28;20068;-41
2021/01/08 09:58:02;;;;;;;6.70;4.60;;;1.00;82.10;;;1.13;69.87;97395.13;5101054;28;20058;-41
2021/01/08 10:00:35;;;;;;;6.83;4.43;;;1.00;81.30;;;1.14;70.43;97389.78;5101312;28;20409;-42
2021/01/08 10:03:16;;;;;;;7.47;4.30;;;0.90;82.00;;;1.15;70.44;97395.84;5102643;28;20336;-42
2021/01/08 10:05:43;;;;;;;7.87;4.47;;;1.00;82.30;;;1.24;70.64;97400.44;5104478;28;20047;-41
2021/01/08 10:08:22;;;;;;;6.93;4.77;;;1.00;82.40;;;1.25;70.40;97402.09;5105326;28;20046;-42
2021/01/08 10:10:50;;;;;;;7.67;5.37;;;1.00;82.70;;;1.18;70.28;97398.25;5089077;28;20050;-41
2021/01/08 10:13:21;;;;;;;8.17;4.90;;;0.90;82.70;;;1.15;70.94;97396.69;5105155;28;20040;-42
2021/01/08 10:15:50;;;;;;;8.20;5.27;;;0.90;82.90;;;1.11;70.90;97408.34;5104891;28;20044;-41
2021/01/08 10:18:28;;;;;;;9.37;5.73;;;0.90;83.00;;;1.10;70.57;97398.78;5105226;28;20051;-42
2021/01/08 10:21:04;;;;;;;10.13;5.27;;;0.90;82.30;;;0.93;71.45;97399.97;5105252;28;20235;-42
2021/01/08 10:23:41;;;;;;;8.57;4.93;;;0.70;83.00;;;1.07;70.63;97406.06;5104218;28;20052;-41
2021/01/08 10:26:14;;;;;;;10.73;5.57;;;0.80;82.70;;;1.05;70.81;97400.03;5104468;28;20052;-42
2021/01/08 10:28:56;;;;;;;9.00;4.90;;;0.80;82.30;;;1.02;70.36;97393.25;5103336;28;20048;-42
2021/01/08 10:31:24;;;;;;;8.20;5.00;;;0.80;81.90;;;1.11;69.98;97389.97;5104846;28;20044;-42
2021/01/08 10:33:52;;;;;;;5.73;4.43;;;0.90;82.50;;;0.92;70.67;97402.72;5104635;28;20054;-41
2021/01/08 10:36:22;;;;;;;9.47;4.70;;;0.80;82.10;;;0.96;71.02;97406.78;5104445;28;20050;-42
2021/01/08 10:38:49;;;;;;;8.23;5.30;;;0.80;82.00;;;1.01;70.35;97396.81;5099302;28;20368;-43
2021/01/08 10:41:18;;;;;;;8.37;5.00;;;0.80;82.10;;;0.93;71.25;97399.13;5084337;28;20067;-41
2021/01/08 10:43:45;;;;;;;9.33;5.33;;;0.80;82.10;;;1.03;70.83;97405.41;5084508;28;20045;-41
2021/01/08 10:46:14;;;;;;;7.97;5.10;;;1.00;82.00;;;1.13;71.11;97393.34;5083932;28;20040;-42
2021/01/08 10:48:43;;;;;;;12.00;5.67;;;1.00;81.60;;;1.27;69.97;97396.75;5083098;28;20228;-42